sensor_id;sensor_type;location;lat;lon;timestamp;P1;durP1;ratioP1;P2;durP2;ratioP2
45382;SDS011;42455;51.660;5.824;2023-08-06T00:03:54;5.0;;;4.0;;
45382;SDS011;42455;51.660;5.824;2023-08-06T00:09:00;5.0;;;4.0;;
45382;SDS011;42455;51.660;5.824;2023-08-06T00:14:06;4.0;;;4.0;;
45382;SDS011;42455;51.660;5.824;2023-08-06T00:19:13;4.0;;;4.0;;
45382;SDS011;42455;51.660;5.824;2023-08-06T00:24:19;4.5;;;4.0;;
45382;SDS011;42455;51.660;5.824;2023-08-06T00:29:25;6.0;;;4.0;;
45382;SDS011;42455;51.660;5.824;2023-08-06T00:34:31;5.0;;;4.0;;
45382;SDS011;42455;51.660;5.824;2023-08-06T00:39:38;5.0;;;4.0;;
45382;SDS011;42455;51.660;5.824;2023-08-06T00:44:44;5.0;;;4.0;;
45382;SDS011;42455;51.660;5.824;2023-08-06T00:49:50;5.0;;;4.0;;
45382;SDS011;42455;51.660;5.824;2023-08-06T00:54:56;5.0;;;4.0;;
45382;SDS011;42455;51.660;5.824;2023-08-06T01:00:02;4.0;;;4.0;;
45382;SDS011;42455;51.660;5.824;2023-08-06T01:05:09;5.0;;;4.0;;
45382;SDS011;42455;51.660;5.824;2023-08-06T01:10:51;5.0;;;4.0;;
45382;SDS011;42455;51.660;5.824;2023-08-06T01:15:26;5.0;;;4.0;;
45382;SDS011;42455;51.660;5.824;2023-08-06T01:20:27;6.0;;;4.0;;
45382;SDS011;42455;51.660;5.824;2023-08-06T01:25:34;5.5;;;4.0;;
45382;SDS011;42455;51.660;5.824;2023-08-06T01:30:41;6.0;;;4.0;;
45382;SDS011;42455;51.660;5.824;2023-08-06T01:35:46;6.5;;;4.0;;
45382;SDS011;42455;51.660;5.824;2023-08-06T01:40:52;4.0;;;4.0;;
45382;SDS011;42455;51.660;5.824;2023-08-06T01:45:58;5.0;;;4.0;;
45382;SDS011;42455;51.660;5.824;2023-08-06T01:51:04;5.0;;;4.0;;
45382;SDS011;42455;51.660;5.824;2023-08-06T01:56:11;4.0;;;4.0;;
45382;SDS011;42455;51.660;5.824;2023-08-06T02:01:17;4.0;;;4.0;;
45382;SDS011;42455;51.660;5.824;2023-08-06T02:06:23;5.0;;;4.5;;
45382;SDS011;42455;51.660;5.824;2023-08-06T02:11:29;5.0;;;4.0;;
45382;SDS011;42455;51.660;5.824;2023-08-06T02:16:36;5.0;;;4.0;;
45382;SDS011;42455;51.660;5.824;2023-08-06T02:21:42;5.0;;;5.0;;
45382;SDS011;42455;51.660;5.824;2023-08-06T02:26:48;6.0;;;5.0;;
45382;SDS011;42455;51.660;5.824;2023-08-06T02:31:54;5.0;;;5.0;;
45382;SDS011;42455;51.660;5.824;2023-08-06T02:37:00;6.0;;;5.0;;
45382;SDS011;42455;51.660;5.824;2023-08-06T02:42:07;6.0;;;6.0;;
45382;SDS011;42455;51.660;5.824;2023-08-06T02:47:13;6.0;;;6.0;;
45382;SDS011;42455;51.660;5.824;2023-08-06T02:52:19;6.0;;;5.0;;
45382;SDS011;42455;51.660;5.824;2023-08-06T02:57:25;7.0;;;6.0;;
45382;SDS011;42455;51.660;5.824;2023-08-06T03:02:31;7.0;;;6.0;;
45382;SDS011;42455;51.660;5.824;2023-08-06T03:07:38;6.0;;;6.0;;
45382;SDS011;42455;51.660;5.824;2023-08-06T03:12:44;7.0;;;6.0;;
45382;SDS011;42455;51.660;5.824;2023-08-06T03:17:50;6.0;;;6.0;;
45382;SDS011;42455;51.660;5.824;2023-08-06T03:22:56;7.0;;;6.0;;
45382;SDS011;42455;51.660;5.824;2023-08-06T03:28:02;7.0;;;6.0;;
45382;SDS011;42455;51.660;5.824;2023-08-06T03:33:09;9.0;;;6.0;;
45382;SDS011;42455;51.660;5.824;2023-08-06T03:38:15;7.0;;;6.0;;
45382;SDS011;42455;51.660;5.824;2023-08-06T03:43:21;6.0;;;6.0;;
45382;SDS011;42455;51.660;5.824;2023-08-06T03:48:27;6.0;;;5.0;;
45382;SDS011;42455;51.660;5.824;2023-08-06T03:53:34;6.0;;;5.0;;
45382;SDS011;42455;51.660;5.824;2023-08-06T03:58:40;5.0;;;5.0;;
45382;SDS011;42455;51.660;5.824;2023-08-06T04:03:46;6.0;;;5.0;;
45382;SDS011;42455;51.660;5.824;2023-08-06T04:08:52;6.0;;;5.0;;
45382;SDS011;42455;51.660;5.824;2023-08-06T04:13:58;6.0;;;5.0;;
45382;SDS011;42455;51.660;5.824;2023-08-06T04:19:04;6.0;;;5.0;;
45382;SDS011;42455;51.660;5.824;2023-08-06T04:24:11;6.0;;;5.0;;
45382;SDS011;42455;51.660;5.824;2023-08-06T04:29:17;6.0;;;5.0;;
45382;SDS011;42455;51.660;5.824;2023-08-06T04:34:23;6.0;;;5.0;;
45382;SDS011;42455;51.660;5.824;2023-08-06T04:39:29;6.0;;;5.0;;
45382;SDS011;42455;51.660;5.824;2023-08-06T04:44:36;6.0;;;6.0;;
45382;SDS011;42455;51.660;5.824;2023-08-06T04:49:42;6.0;;;5.0;;
45382;SDS011;42455;51.660;5.824;2023-08-06T04:54:48;6.0;;;6.0;;
45382;SDS011;42455;51.660;5.824;2023-08-06T04:59:54;6.0;;;6.0;;
45382;SDS011;42455;51.660;5.824;2023-08-06T05:05:00;6.0;;;6.0;;
45382;SDS011;42455;51.660;5.824;2023-08-06T05:10:06;7.0;;;6.0;;
45382;SDS011;42455;51.660;5.824;2023-08-06T05:15:12;7.0;;;6.0;;
45382;SDS011;42455;51.660;5.824;2023-08-06T05:20:19;8.0;;;7.0;;
45382;SDS011;42455;51.660;5.824;2023-08-06T05:25:24;9.0;;;8.0;;
45382;SDS011;42455;51.660;5.824;2023-08-06T05:30:30;10.0;;;9.0;;
45382;SDS011;42455;51.660;5.824;2023-08-06T05:35:37;9.0;;;8.0;;
45382;SDS011;42455;51.660;5.824;2023-08-06T05:40:43;10.0;;;9.0;;
45382;SDS011;42455;51.660;5.824;2023-08-06T05:45:49;10.0;;;9.0;;
45382;SDS011;42455;51.660;5.824;2023-08-06T05:50:55;10.0;;;9.0;;
45382;SDS011;42455;51.660;5.824;2023-08-06T05:56:02;10.0;;;9.0;;
45382;SDS011;42455;51.660;5.824;2023-08-06T06:01:08;10.0;;;9.0;;
45382;SDS011;42455;51.660;5.824;2023-08-06T06:06:14;9.0;;;8.0;;
45382;SDS011;42455;51.660;5.824;2023-08-06T06:11:20;9.0;;;8.0;;
45382;SDS011;42455;51.660;5.824;2023-08-06T06:16:26;8.0;;;8.0;;
45382;SDS011;42455;51.660;5.824;2023-08-06T06:21:32;10.0;;;9.0;;
45382;SDS011;42455;51.660;5.824;2023-08-06T06:26:39;9.0;;;8.0;;
45382;SDS011;42455;51.660;5.824;2023-08-06T06:31:45;8.0;;;7.0;;
45382;SDS011;42455;51.660;5.824;2023-08-06T06:36:51;8.0;;;7.0;;
45382;SDS011;42455;51.660;5.824;2023-08-06T06:41:57;8.0;;;8.0;;
45382;SDS011;42455;51.660;5.824;2023-08-06T06:47:04;6.0;;;5.0;;
45382;SDS011;42455;51.660;5.824;2023-08-06T06:52:10;6.0;;;5.0;;
45382;SDS011;42455;51.660;5.824;2023-08-06T06:57:16;7.0;;;6.0;;
45382;SDS011;42455;51.660;5.824;2023-08-06T07:02:22;7.0;;;6.0;;
45382;SDS011;42455;51.660;5.824;2023-08-06T07:07:28;7.0;;;6.0;;
45382;SDS011;42455;51.660;5.824;2023-08-06T07:12:35;7.0;;;6.0;;
45382;SDS011;42455;51.660;5.824;2023-08-06T07:17:41;7.0;;;6.0;;
45382;SDS011;42455;51.660;5.824;2023-08-06T07:22:47;7.0;;;6.0;;
45382;SDS011;42455;51.660;5.824;2023-08-06T07:27:53;7.0;;;7.0;;
45382;SDS011;42455;51.660;5.824;2023-08-06T07:32:59;8.0;;;7.0;;
45382;SDS011;42455;51.660;5.824;2023-08-06T07:38:06;8.0;;;7.0;;
45382;SDS011;42455;51.660;5.824;2023-08-06T07:43:12;8.0;;;7.0;;
45382;SDS011;42455;51.660;5.824;2023-08-06T07:48:18;9.0;;;8.0;;
45382;SDS011;42455;51.660;5.824;2023-08-06T07:53:25;9.0;;;8.0;;
45382;SDS011;42455;51.660;5.824;2023-08-06T07:58:30;9.0;;;8.0;;
45382;SDS011;42455;51.660;5.824;2023-08-06T08:03:37;9.0;;;8.0;;
45382;SDS011;42455;51.660;5.824;2023-08-06T08:08:43;9.0;;;8.0;;
45382;SDS011;42455;51.660;5.824;2023-08-06T08:13:49;7.0;;;6.0;;
45382;SDS011;42455;51.660;5.824;2023-08-06T08:18:55;12.0;;;11.0;;
45382;SDS011;42455;51.660;5.824;2023-08-06T08:24:03;13.0;;;11.5;;
45382;SDS011;42455;51.660;5.824;2023-08-06T08:29:08;12.0;;;11.0;;
45382;SDS011;42455;51.660;5.824;2023-08-06T08:34:14;11.0;;;10.0;;
45382;SDS011;42455;51.660;5.824;2023-08-06T08:39:20;9.0;;;8.0;;
45382;SDS011;42455;51.660;5.824;2023-08-06T08:44:26;9.0;;;8.0;;
45382;SDS011;42455;51.660;5.824;2023-08-06T08:49:33;8.0;;;8.0;;
45382;SDS011;42455;51.660;5.824;2023-08-06T08:54:39;8.0;;;7.0;;
45382;SDS011;42455;51.660;5.824;2023-08-06T08:59:45;6.0;;;6.0;;
45382;SDS011;42455;51.660;5.824;2023-08-06T09:04:52;2.0;;;2.0;;
45382;SDS011;42455;51.660;5.824;2023-08-06T09:09:57;2.0;;;1.0;;
45382;SDS011;42455;51.660;5.824;2023-08-06T09:15:04;2.0;;;2.0;;
45382;SDS011;42455;51.660;5.824;2023-08-06T09:20:10;3.0;;;2.0;;
45382;SDS011;42455;51.660;5.824;2023-08-06T09:25:23;3.0;;;3.0;;
45382;SDS011;42455;51.660;5.824;2023-08-06T09:30:35;3.0;;;3.0;;
45382;SDS011;42455;51.660;5.824;2023-08-06T09:35:29;3.0;;;3.0;;
45382;SDS011;42455;51.660;5.824;2023-08-06T09:40:35;4.0;;;3.0;;
45382;SDS011;42455;51.660;5.824;2023-08-06T09:45:41;4.0;;;4.0;;
45382;SDS011;42455;51.660;5.824;2023-08-06T09:50:48;5.0;;;5.0;;
45382;SDS011;42455;51.660;5.824;2023-08-06T09:55:53;6.0;;;5.0;;
45382;SDS011;42455;51.660;5.824;2023-08-06T10:01:00;6.0;;;6.0;;
45382;SDS011;42455;51.660;5.824;2023-08-06T10:06:06;7.0;;;6.0;;
45382;SDS011;42455;51.660;5.824;2023-08-06T10:11:12;7.0;;;6.0;;
45382;SDS011;42455;51.660;5.824;2023-08-06T10:16:18;6.5;;;6.0;;
45382;SDS011;42455;51.660;5.824;2023-08-06T10:21:24;7.0;;;6.0;;
45382;SDS011;42455;51.660;5.824;2023-08-06T10:26:31;6.0;;;6.0;;
45382;SDS011;42455;51.660;5.824;2023-08-06T10:31:58;7.0;;;6.0;;
45382;SDS011;42455;51.660;5.824;2023-08-06T10:36:42;6.0;;;6.0;;
45382;SDS011;42455;51.660;5.824;2023-08-06T10:41:48;6.0;;;5.0;;
45382;SDS011;42455;51.660;5.824;2023-08-06T10:46:54;5.0;;;5.0;;
45382;SDS011;42455;51.660;5.824;2023-08-06T10:52:01;5.0;;;5.0;;
45382;SDS011;42455;51.660;5.824;2023-08-06T10:57:08;5.0;;;5.0;;
45382;SDS011;42455;51.660;5.824;2023-08-06T11:02:13;6.0;;;5.0;;
45382;SDS011;42455;51.660;5.824;2023-08-06T11:07:18;5.0;;;4.0;;
45382;SDS011;42455;51.660;5.824;2023-08-06T11:12:25;4.0;;;4.0;;
45382;SDS011;42455;51.660;5.824;2023-08-06T11:17:31;4.0;;;4.0;;
45382;SDS011;42455;51.660;5.824;2023-08-06T11:22:37;4.0;;;3.0;;
45382;SDS011;42455;51.660;5.824;2023-08-06T11:27:43;4.0;;;3.0;;
45382;SDS011;42455;51.660;5.824;2023-08-06T11:32:49;4.0;;;3.0;;
45382;SDS011;42455;51.660;5.824;2023-08-06T11:37:56;3.0;;;3.0;;
45382;SDS011;42455;51.660;5.824;2023-08-06T11:43:02;3.0;;;3.0;;
45382;SDS011;42455;51.660;5.824;2023-08-06T11:48:08;2.0;;;2.0;;
45382;SDS011;42455;51.660;5.824;2023-08-06T11:53:14;4.0;;;3.0;;
45382;SDS011;42455;51.660;5.824;2023-08-06T11:58:20;4.0;;;3.0;;
45382;SDS011;42455;51.660;5.824;2023-08-06T12:03:26;3.0;;;3.0;;
45382;SDS011;42455;51.660;5.824;2023-08-06T12:08:33;3.0;;;3.0;;
45382;SDS011;42455;51.660;5.824;2023-08-06T12:13:39;4.0;;;3.0;;
45382;SDS011;42455;51.660;5.824;2023-08-06T12:18:45;4.0;;;3.0;;
45382;SDS011;42455;51.660;5.824;2023-08-06T12:23:51;3.5;;;3.0;;
45382;SDS011;42455;51.660;5.824;2023-08-06T12:28:58;8.0;;;3.0;;
45382;SDS011;42455;51.660;5.824;2023-08-06T12:34:04;3.0;;;3.0;;
45382;SDS011;42455;51.660;5.824;2023-08-06T12:39:10;4.0;;;2.0;;
45382;SDS011;42455;51.660;5.824;2023-08-06T12:44:16;4.5;;;3.0;;
45382;SDS011;42455;51.660;5.824;2023-08-06T12:49:23;3.0;;;3.0;;
45382;SDS011;42455;51.660;5.824;2023-08-06T12:54:29;4.0;;;3.0;;
45382;SDS011;42455;51.660;5.824;2023-08-06T12:59:35;4.0;;;3.0;;
45382;SDS011;42455;51.660;5.824;2023-08-06T13:04:41;4.0;;;3.0;;
45382;SDS011;42455;51.660;5.824;2023-08-06T13:09:47;3.5;;;3.0;;
45382;SDS011;42455;51.660;5.824;2023-08-06T13:14:53;4.0;;;3.0;;
45382;SDS011;42455;51.660;5.824;2023-08-06T13:19:59;5.0;;;3.0;;
45382;SDS011;42455;51.660;5.824;2023-08-06T13:25:04;5.0;;;3.0;;
45382;SDS011;42455;51.660;5.824;2023-08-06T13:30:10;4.0;;;2.0;;
45382;SDS011;42455;51.660;5.824;2023-08-06T13:35:16;3.0;;;2.0;;
45382;SDS011;42455;51.660;5.824;2023-08-06T13:40:23;2.0;;;2.0;;
45382;SDS011;42455;51.660;5.824;2023-08-06T13:45:29;2.0;;;2.0;;
45382;SDS011;42455;51.660;5.824;2023-08-06T13:50:35;2.5;;;2.0;;
45382;SDS011;42455;51.660;5.824;2023-08-06T13:55:41;3.0;;;2.0;;
45382;SDS011;42455;51.660;5.824;2023-08-06T14:00:47;2.0;;;2.0;;
45382;SDS011;42455;51.660;5.824;2023-08-06T14:05:54;2.0;;;2.0;;
45382;SDS011;42455;51.660;5.824;2023-08-06T14:11:00;3.0;;;2.0;;
45382;SDS011;42455;51.660;5.824;2023-08-06T14:16:06;2.0;;;2.0;;
45382;SDS011;42455;51.660;5.824;2023-08-06T14:21:12;2.0;;;2.0;;
45382;SDS011;42455;51.660;5.824;2023-08-06T14:26:18;2.0;;;2.0;;
45382;SDS011;42455;51.660;5.824;2023-08-06T14:31:25;2.0;;;2.0;;
45382;SDS011;42455;51.660;5.824;2023-08-06T14:36:31;2.0;;;2.0;;
45382;SDS011;42455;51.660;5.824;2023-08-06T14:41:37;3.0;;;2.0;;
45382;SDS011;42455;51.660;5.824;2023-08-06T14:46:43;2.0;;;2.0;;
45382;SDS011;42455;51.660;5.824;2023-08-06T14:51:49;3.0;;;2.0;;
45382;SDS011;42455;51.660;5.824;2023-08-06T14:56:56;2.0;;;1.0;;
45382;SDS011;42455;51.660;5.824;2023-08-06T15:02:02;3.0;;;2.0;;
45382;SDS011;42455;51.660;5.824;2023-08-06T15:07:07;3.0;;;2.0;;
45382;SDS011;42455;51.660;5.824;2023-08-06T15:12:13;3.0;;;3.0;;
45382;SDS011;42455;51.660;5.824;2023-08-06T15:17:20;3.0;;;3.0;;
45382;SDS011;42455;51.660;5.824;2023-08-06T15:22:26;3.0;;;3.0;;
45382;SDS011;42455;51.660;5.824;2023-08-06T15:27:32;4.0;;;3.0;;
45382;SDS011;42455;51.660;5.824;2023-08-06T15:32:38;4.0;;;3.0;;
45382;SDS011;42455;51.660;5.824;2023-08-06T15:37:44;3.0;;;3.0;;
45382;SDS011;42455;51.660;5.824;2023-08-06T15:42:51;3.0;;;3.0;;
45382;SDS011;42455;51.660;5.824;2023-08-06T15:47:57;4.0;;;3.0;;
45382;SDS011;42455;51.660;5.824;2023-08-06T15:58:09;3.0;;;2.0;;
45382;SDS011;42455;51.660;5.824;2023-08-06T16:03:15;3.0;;;2.0;;
45382;SDS011;42455;51.660;5.824;2023-08-06T16:08:22;2.0;;;2.0;;
45382;SDS011;42455;51.660;5.824;2023-08-06T16:13:28;3.0;;;2.0;;
45382;SDS011;42455;51.660;5.824;2023-08-06T16:18:34;2.0;;;1.5;;
45382;SDS011;42455;51.660;5.824;2023-08-06T16:23:40;4.0;;;1.0;;
45382;SDS011;42455;51.660;5.824;2023-08-06T16:28:47;3.0;;;1.0;;
45382;SDS011;42455;51.660;5.824;2023-08-06T16:33:53;3.0;;;1.0;;
45382;SDS011;42455;51.660;5.824;2023-08-06T16:39:00;4.0;;;1.0;;
45382;SDS011;42455;51.660;5.824;2023-08-06T16:49:11;5.0;;;1.0;;
45382;SDS011;42455;51.660;5.824;2023-08-06T16:54:18;4.5;;;1.0;;
45382;SDS011;42455;51.660;5.824;2023-08-06T16:59:23;6.0;;;1.0;;
45382;SDS011;42455;51.660;5.824;2023-08-06T17:04:28;4.0;;;1.0;;
45382;SDS011;42455;51.660;5.824;2023-08-06T17:09:34;4.0;;;1.0;;
45382;SDS011;42455;51.660;5.824;2023-08-06T17:14:40;4.0;;;1.0;;
45382;SDS011;42455;51.660;5.824;2023-08-06T17:19:47;6.0;;;1.0;;
45382;SDS011;42455;51.660;5.824;2023-08-06T17:24:53;5.0;;;1.0;;
45382;SDS011;42455;51.660;5.824;2023-08-06T17:29:59;5.0;;;1.0;;
45382;SDS011;42455;51.660;5.824;2023-08-06T17:35:06;6.0;;;1.0;;
45382;SDS011;42455;51.660;5.824;2023-08-06T17:40:11;5.0;;;1.0;;
45382;SDS011;42455;51.660;5.824;2023-08-06T17:45:18;6.0;;;1.0;;
45382;SDS011;42455;51.660;5.824;2023-08-06T17:50:24;6.5;;;1.0;;
45382;SDS011;42455;51.660;5.824;2023-08-06T17:55:30;6.0;;;2.0;;
45382;SDS011;42455;51.660;5.824;2023-08-06T18:00:36;6.0;;;2.0;;
45382;SDS011;42455;51.660;5.824;2023-08-06T18:05:42;4.0;;;1.0;;
45382;SDS011;42455;51.660;5.824;2023-08-06T18:10:49;6.0;;;1.0;;
45382;SDS011;42455;51.660;5.824;2023-08-06T18:15:55;4.0;;;1.0;;
45382;SDS011;42455;51.660;5.824;2023-08-06T18:21:01;5.0;;;1.0;;
45382;SDS011;42455;51.660;5.824;2023-08-06T18:26:07;4.0;;;1.0;;
45382;SDS011;42455;51.660;5.824;2023-08-06T18:31:14;5.0;;;1.0;;
45382;SDS011;42455;51.660;5.824;2023-08-06T18:36:20;4.0;;;1.0;;
45382;SDS011;42455;51.660;5.824;2023-08-06T18:41:26;5.0;;;1.0;;
45382;SDS011;42455;51.660;5.824;2023-08-06T18:46:31;4.0;;;1.0;;
45382;SDS011;42455;51.660;5.824;2023-08-06T18:51:37;4.0;;;1.0;;
45382;SDS011;42455;51.660;5.824;2023-08-06T18:56:44;5.0;;;1.0;;
45382;SDS011;42455;51.660;5.824;2023-08-06T19:01:50;5.5;;;1.0;;
45382;SDS011;42455;51.660;5.824;2023-08-06T19:06:56;6.0;;;2.0;;
45382;SDS011;42455;51.660;5.824;2023-08-06T19:12:02;7.0;;;2.0;;
45382;SDS011;42455;51.660;5.824;2023-08-06T19:17:08;6.0;;;1.0;;
45382;SDS011;42455;51.660;5.824;2023-08-06T19:22:15;7.0;;;2.0;;
45382;SDS011;42455;51.660;5.824;2023-08-06T19:27:21;7.0;;;1.0;;
45382;SDS011;42455;51.660;5.824;2023-08-06T19:32:27;6.5;;;2.0;;
45382;SDS011;42455;51.660;5.824;2023-08-06T19:37:33;5.0;;;1.0;;
45382;SDS011;42455;51.660;5.824;2023-08-06T19:42:39;4.5;;;1.0;;
45382;SDS011;42455;51.660;5.824;2023-08-06T19:47:46;4.0;;;1.0;;
45382;SDS011;42455;51.660;5.824;2023-08-06T19:52:52;4.0;;;1.0;;
45382;SDS011;42455;51.660;5.824;2023-08-06T19:57:58;4.0;;;1.0;;
45382;SDS011;42455;51.660;5.824;2023-08-06T20:03:04;5.0;;;1.0;;
45382;SDS011;42455;51.660;5.824;2023-08-06T20:08:10;4.0;;;1.0;;
45382;SDS011;42455;51.660;5.824;2023-08-06T20:13:17;5.0;;;1.0;;
45382;SDS011;42455;51.660;5.824;2023-08-06T20:18:23;3.0;;;1.0;;
45382;SDS011;42455;51.660;5.824;2023-08-06T20:23:29;4.0;;;1.0;;
45382;SDS011;42455;51.660;5.824;2023-08-06T20:28:34;7.0;;;2.0;;
45382;SDS011;42455;51.660;5.824;2023-08-06T20:33:40;6.0;;;2.0;;
45382;SDS011;42455;51.660;5.824;2023-08-06T20:38:46;6.0;;;1.0;;
45382;SDS011;42455;51.660;5.824;2023-08-06T20:43:52;5.0;;;1.0;;
45382;SDS011;42455;51.660;5.824;2023-08-06T20:48:58;6.0;;;2.0;;
45382;SDS011;42455;51.660;5.824;2023-08-06T20:54:04;8.0;;;2.0;;
45382;SDS011;42455;51.660;5.824;2023-08-06T20:59:11;8.0;;;2.0;;
45382;SDS011;42455;51.660;5.824;2023-08-06T21:04:17;6.0;;;2.0;;
45382;SDS011;42455;51.660;5.824;2023-08-06T21:09:23;6.0;;;2.0;;
45382;SDS011;42455;51.660;5.824;2023-08-06T21:14:29;6.0;;;2.0;;
45382;SDS011;42455;51.660;5.824;2023-08-06T21:19:35;8.0;;;2.0;;
45382;SDS011;42455;51.660;5.824;2023-08-06T21:24:42;7.0;;;2.0;;
45382;SDS011;42455;51.660;5.824;2023-08-06T21:34:54;9.0;;;2.0;;
45382;SDS011;42455;51.660;5.824;2023-08-06T21:40:00;9.0;;;2.0;;
45382;SDS011;42455;51.660;5.824;2023-08-06T21:45:06;6.0;;;2.0;;
45382;SDS011;42455;51.660;5.824;2023-08-06T21:50:13;6.0;;;2.0;;
45382;SDS011;42455;51.660;5.824;2023-08-06T21:55:19;6.5;;;2.0;;
45382;SDS011;42455;51.660;5.824;2023-08-06T22:00:25;5.0;;;2.0;;
45382;SDS011;42455;51.660;5.824;2023-08-06T22:05:31;5.0;;;2.0;;
45382;SDS011;42455;51.660;5.824;2023-08-06T22:10:38;7.0;;;2.0;;
45382;SDS011;42455;51.660;5.824;2023-08-06T22:15:44;7.0;;;2.0;;
45382;SDS011;42455;51.660;5.824;2023-08-06T22:20:49;7.0;;;2.0;;
45382;SDS011;42455;51.660;5.824;2023-08-06T22:25:55;7.0;;;2.0;;
45382;SDS011;42455;51.660;5.824;2023-08-06T22:31:01;4.0;;;2.0;;
45382;SDS011;42455;51.660;5.824;2023-08-06T22:36:08;4.0;;;1.5;;
45382;SDS011;42455;51.660;5.824;2023-08-06T22:41:14;5.0;;;2.0;;
45382;SDS011;42455;51.660;5.824;2023-08-06T22:46:20;4.0;;;1.0;;
45382;SDS011;42455;51.660;5.824;2023-08-06T22:51:26;6.0;;;2.0;;
45382;SDS011;42455;51.660;5.824;2023-08-06T22:56:33;5.0;;;2.0;;
45382;SDS011;42455;51.660;5.824;2023-08-06T23:01:39;6.0;;;2.0;;
45382;SDS011;42455;51.660;5.824;2023-08-06T23:06:45;5.0;;;2.0;;
45382;SDS011;42455;51.660;5.824;2023-08-06T23:11:51;6.5;;;2.0;;
45382;SDS011;42455;51.660;5.824;2023-08-06T23:16:57;6.5;;;2.0;;
45382;SDS011;42455;51.660;5.824;2023-08-06T23:22:04;6.0;;;2.0;;
45382;SDS011;42455;51.660;5.824;2023-08-06T23:27:10;7.5;;;2.0;;
45382;SDS011;42455;51.660;5.824;2023-08-06T23:32:16;6.0;;;2.0;;
45382;SDS011;42455;51.660;5.824;2023-08-06T23:37:22;7.0;;;2.0;;
45382;SDS011;42455;51.660;5.824;2023-08-06T23:42:28;7.0;;;2.0;;
45382;SDS011;42455;51.660;5.824;2023-08-06T23:47:35;6.0;;;2.0;;
45382;SDS011;42455;51.660;5.824;2023-08-06T23:52:41;6.0;;;2.0;;
45382;SDS011;42455;51.660;5.824;2023-08-06T23:57:47;7.0;;;2.0;;
